ESSV/VBY METAR and TAF weather

Enter ICAO airport designator
Station Type Date Time Source
ESSV METAR 2020/11/27 14:50 UTC NOAA

ESSV 271450Z 36015KT 9999 BKN020 04/00 Q1019 R03/19//95


Station Type Date Time Source
ESSV Decoded METAR 2020/11/27 14:50 UTC NOAA

Visby Flygplats, Sweden (ESSV) 57-40N 018-21E 47M
Nov 27, 2020 - 09:50 AM EST / 2020.11.27 1450 UTC
Wind: from the N (360 degrees) at 17 MPH (15 KT):0
Visibility: greater than 7 mile(s):0
Sky conditions: mostly cloudy
Temperature: 39 F (4 C)
Dew Point: 32 F (0 C)
Relative Humidity: 75%
Pressure (altimeter): 30.09 in. Hg (1019 hPa)
ob: ESSV 271450Z 36015KT 9999 BKN020 04/00 Q1019 R03/19//95
cycle: 15

Station Type Date Time Source
ESSV TAF 2017/09/20 09:39 UTC NOAA

TAF COR TAF COR ESSV 200840Z 2009/2021 10005KT 9999 BKN030 PROB40 2009/2016 4000 TS SHRA BKN015CB

Example: see airport list